Lutz, FL (33548)

3:26 PM EDT on April 26, 2015 (GMT -0400)
Old Reliable Groves, Lutz, FL | | Change Station
CLOSE
Current Station
Personal Weather Station
Location: Lutz, FL
Elevation: 69 ft
Nearby Weather Stations

Elev 69 ft 28.12 °N, 82.47 °W | Updated 3 seconds ago

Mostly Cloudy
Mostly Cloudy
85.6 °F
Feels Like 97 °F
N
2.0
Wind Variable Wind from SE
Gusts 6.0 mph

Today
High -- | Low -- °F
--% Chance of Precip.
Yesterday
High -- | Low -- °F
Precip. -- in
6:54 AM 8:01 PM
First Quarter, 58% visible
Pressure 29.80 in
Visibility 10.0 miles
Clouds Scattered Clouds 2400 ft
Mostly Cloudy 3300 ft
Heat Index 97 °F
Dew Point 77 °F
Humidity 76%
Rainfall 0.00 in
Snow Depth Not available.
UV 7 out of 12
Pollen 6.80 out of 12
Air Quality Not available.
Flu Activity Local Activity
METAR KTPA 261853Z 25013KT 10SM SCT024 BKN033 29/23 A2980 RMK AO2 SLP089 T02940233

More Conditions Fewer Conditions

Pressure 29.80 in
Visibility 10.0 miles
Clouds Scattered Clouds 2400 ft
Mostly Cloudy 3300 ft
Heat Index 97 °F
Dew Point 77 °F
Humidity 76%
Rainfall 0.00 in
Snow Depth Not available.
UV 7 out of 12
Pollen 6.80 out of 12
Air Quality Not available.
Flu Activity Local Activity
METAR KTPA 261853Z 25013KT 10SM SCT024 BKN033 29/23 A2980 RMK AO2 SLP089 T02940233

More Conditions Fewer Conditions

The full scope of the disaster following a powerful 7.8-magnitude earthquake in Nepal may not come into view for days, but global charities are already sending emergency aid. Click to see how you can help.

10-Day Weather Forecast

Almanac

Astronomy

Apr. 26, 2015 Rise Set
Actual Time
Civil Twilight
Nautical Twilight
Astronomical Twilight
Moon
Length of Visible Light
Length of Day
Tomorrow will be .
, % of the Moon is Illuminated

Today's Extremes

State Highs State Lows

Community

WunderPhotos

Upload Photos

1,817,097 photos uploaded!

WunderBlogs® & News

Nearby

Air Quality

  Air Quality AQ Index Pollutant
Not available.

Snow Depth

Station Depth Elevation

Earthquake Activity

City Distance Mag. Time & Date
Minimum magnitude displayed is 2.5.

Coastal Water Temperatures

Place Temperature

Stations

Nearby Weather Stations

Station Location Temp. Windchill Dew Point Humidity Wind Precip. Elev Updated Type